Flight Track Log - Related Links

Times and Time Zones

All times are in EDT time to prevent confusion due to time zone crossing. See the SWA378 flight status page for this flight to view local times or setup timezone preferences in your user account.

Time Position Orientation Groundspeed Altitude Reporting Facility
EDT Latitude Longitude Course Direction KTS MPH feet Rate Location/Type
Mon 11:10:07 AM 37.3833 -121.9500 322° Northwest 158 182 1,200  Level Northern Cal TRACON
Mon 11:11:01 AM 37.4167 -121.9833 322° Northwest 227 261 2,400 1,872 Climbing Northern Cal TRACON
Mon 11:11:56 AM 37.4333 -121.9333 67° East 247 284 4,600 1,785 Climbing Northern Cal TRACON
Mon 11:13:02 AM 37.3833 -121.8500 127° Southeast 239 275 6,000 1,900 Climbing Northern Cal TRACON
Mon 11:13:56 AM 37.3500 -121.8167 142° Southeast 258 297 8,400 2,579 Climbing Northern Cal TRACON
Mon 11:14:56 AM 37.2833 -121.7333 135° Southeast 320 368 10,900 2,450 Climbing Northern Cal TRACON
Mon 11:15:56 AM 37.2000 -121.6500 141° Southeast 386 444 13,300 2,400 Climbing Northern Cal TRACON
Mon 11:17:21 AM 37.0922 -121.5214 136° Southeast 398 458 16,700 2,630 Climbing Oakland Center
Mon 11:18:22 AM 36.9994 -121.4203 139° Southeast 416 479 19,700 2,459 Climbing Oakland Center
Mon 11:19:23 AM 36.9078 -121.3178 138° Southeast 438 504 21,700 1,869 Climbing Oakland Center
Mon 11:20:24 AM 36.8100 -121.2128 139° Southeast 456 525 23,500 1,951 Climbing Oakland Center
Mon 11:21:26 AM 36.7114 -121.1053 139° Southeast 468 539 25,700 1,902 Climbing Oakland Center
Mon 11:22:27 AM 36.6108 -120.9994 140° Southeast 474 545 27,400 1,820 Climbing Oakland Center
Mon 11:23:28 AM 36.5158 -120.8858 136° Southeast 473 544 29,400 1,623 Climbing Oakland Center
Mon 11:24:29 AM 36.4353 -120.7525 127° Southeast 481 554 30,700 1,415 Climbing Oakland Center
Mon 11:25:31 AM 36.3506 -120.6225 129° Southeast 484 557 32,300 1,561 Climbing Oakland Center
Mon 11:26:32 AM 36.2686 -120.4953 129° Southeast 475 547 33,900 1,328 Climbing Oakland Center
Mon 11:27:33 AM 36.1692 -120.3444 129° Southeast 471 542 35,000 492 Climbing Oakland Center
Mon 11:28:34 AM 36.0864 -120.2167 129° Southeast 474 545 34,900 146 Descending Oakland Center
Mon 11:29:36 AM 36.0039 -120.0894 129° Southeast 473 544 35,300 1,024 Climbing Oakland Center
Mon 11:30:37 AM 35.9217 -119.9636 129° Southeast 469 540 37,000 836 Climbing Oakland Center
Mon 11:31:38 AM 35.8394 -119.8428 130° Southeast 462 532 37,000  Level Oakland Center
Mon 11:32:40 AM 35.7572 -119.7156 129° Southeast 469 540 37,000 -49 Level Oakland Center
Mon 11:33:41 AM 35.6719 -119.5889 130° Southeast 478 550 36,900  Descending Oakland Center
Mon 11:34:48 AM 35.5733 -119.4406 129° Southeast 466 536 37,000 47 Climbing Los Angeles Center
Mon 11:35:50 AM 35.4919 -119.3189 129° Southeast 462 532 37,000 -194 Level Los Angeles Center
Mon 11:36:52 AM 35.4078 -119.1958 130° Southeast 468 539 36,600 -677 Descending Los Angeles Center
Mon 11:37:54 AM 35.3233 -119.0686 129° Southeast 478 550 35,600 -768 Descending Los Angeles Center
Mon 11:38:57 AM 35.2397 -118.9436 129° Southeast 475 547 35,000 -336 Descending Los Angeles Center
Mon 11:39:59 AM 35.1553 -118.8231 131° Southeast 469 540 34,900 -629 Descending Los Angeles Center
Mon 11:41:01 AM 35.0564 -118.6794 130° Southeast 462 532 33,700 -1,403 Descending Los Angeles Center
Mon 11:42:03 AM 34.9747 -118.5594 130° Southeast 461 531 32,000 -2,323 Descending Los Angeles Center
Mon 11:43:05 AM 34.9011 -118.4536 130° Southeast 466 536 28,900 -2,323 Descending Los Angeles Center
Mon 11:44:07 AM 34.8008 -118.3075 130° Southeast 471 542 27,200 -1,403 Descending Los Angeles Center
Mon 11:45:09 AM 34.7197 -118.1919 130° Southeast 458 527 26,000 -1,742 Descending Los Angeles Center
Mon 11:46:11 AM 34.6406 -118.0794 131° Southeast 443 510 23,600 -2,304 Descending Los Angeles Center
Mon 11:47:14 AM 34.5817 -117.9569 120° Southeast 425 489 21,200 -2,160 Descending Los Angeles Center
Mon 11:48:16 AM 34.5264 -117.8375 119° Southeast 412 474 19,100 -2,177 Descending Los Angeles Center
Mon 11:49:18 AM 34.4644 -117.7022 119° Southeast 386 444 16,700 -2,226 Descending Los Angeles Center
Mon 11:50:20 AM 34.4156 -117.5947 119° Southeast 369 425 14,500 -1,597 Descending Los Angeles Center
Mon 11:51:22 AM 34.3722 -117.5003 119° Southeast 342 394 13,400 -1,548 Descending Los Angeles Center
Mon 11:52:24 AM 34.3203 -117.3856 119° Southeast 325 374 11,300 -1,839 Descending Los Angeles Center
Mon 11:53:26 AM 34.2558 -117.3281 144° Southeast 296 341 9,600 -1,597 Descending Los Angeles Center
Mon 11:54:28 AM 34.1764 -117.3042 166° South 289 333 8,000 -1,645 Descending Los Angeles Center
Mon 11:55:30 AM 34.1042 -117.3006 178° South 268 308 6,200 -2,000 Descending Los Angeles Center
Mon 11:56:31 AM 34.0500 -117.3833 232° Southwest 276 318 3,900 -1,388 Descending Southern California TRACON
Mon 11:57:31 AM 34.0500 -117.4500 270° West 193 222 3,400 -850 Descending Southern California TRACON
Mon 11:58:31 AM 34.0500 -117.5000 270° West 155 178 2,200 -950 Descending Southern California TRACON
Mon 11:59:31 AM 34.0500 -117.5500 270° West 138 159 1,500 -700 Descending Southern California TRACON
Mon 12:02:00 PM 34.0500 -117.6000 270° West  Level FlightAware Approximate
Mon 12:09:00 PM 34.0560 -117.6012 270° West  Level Estimated

Login

Don't have an account? Register now (free) for customized features, flight alerts, and more!